createdAt,value
2022-09-07T00:01:40.122Z,4.72
2022-09-07T00:04:10.610Z,6.63
2022-09-07T00:06:39.694Z,5.88
2022-09-07T00:09:09.059Z,4.28
2022-09-07T00:11:38.067Z,6.53
2022-09-07T00:14:07.814Z,5.93
2022-09-07T00:16:37.254Z,3.42
2022-09-07T00:21:55.047Z,5.45
2022-09-07T00:24:24.101Z,4.60
2022-09-07T00:26:55.816Z,3.97
2022-09-07T00:29:25.644Z,2.85
2022-09-07T00:31:54.604Z,6.63
2022-09-07T00:34:23.802Z,5.15
2022-09-07T00:36:54.293Z,5.47
2022-09-07T00:39:23.282Z,5.05
2022-09-07T00:41:52.192Z,4.07
2022-09-07T00:45:07.588Z,3.83
2022-09-07T00:47:42.483Z,5.70
2022-09-07T00:50:17.911Z,3.80
2022-09-07T00:52:53.171Z,5.32
2022-09-07T00:55:23.624Z,3.75
2022-09-07T00:57:55.815Z,4.30
2022-09-07T01:00:24.854Z,4.40
2022-09-07T01:02:58.027Z,3.33
2022-09-07T01:05:32.505Z,3.28
2022-09-07T01:08:03.082Z,3.72
2022-09-07T01:10:32.725Z,4.22
2022-09-07T01:13:01.751Z,4.47
2022-09-07T01:15:41.737Z,3.58
2022-09-07T01:18:22.618Z,4.70
2022-09-07T01:21:22.233Z,4.72
2022-09-07T01:24:24.558Z,2.75
2022-09-07T01:27:37.621Z,2.35
2022-09-07T01:30:09.370Z,4.03
2022-09-07T01:33:01.420Z,3.25
2022-09-07T01:35:41.322Z,4.47
2022-09-07T01:38:16.590Z,2.78
2022-09-07T01:40:52.676Z,3.22
2022-09-07T01:43:32.420Z,4.45
2022-09-07T01:46:07.809Z,2.30
2022-09-07T01:48:39.132Z,2.85
2022-09-07T01:51:08.241Z,2.72
2022-09-07T01:53:42.477Z,3.22
2022-09-07T01:56:14.940Z,5.30
2022-09-07T01:58:50.609Z,2.67
2022-09-07T02:01:26.542Z,2.67
2022-09-07T02:04:02.103Z,3.95
2022-09-07T02:06:39.011Z,4.68
2022-09-07T02:09:12.314Z,3.30
2022-09-07T02:11:43.908Z,2.42
2022-09-07T02:14:21.136Z,2.58
2022-09-07T02:16:57.217Z,6.10
2022-09-07T02:22:04.586Z,2.67
2022-09-07T02:24:37.780Z,3.85
2022-09-07T02:27:12.182Z,3.47
2022-09-07T02:29:43.754Z,4.80
2022-09-07T02:32:13.207Z,6.10
2022-09-07T02:34:42.308Z,2.42
2022-09-07T02:37:12.238Z,3.17
2022-09-07T02:39:41.620Z,2.03
2022-09-07T02:42:11.357Z,2.45
2022-09-07T02:44:45.726Z,4.65
2022-09-07T02:47:30.764Z,2.92
2022-09-07T02:50:19.173Z,3.50
2022-09-07T02:52:59.263Z,2.33
2022-09-07T02:55:40.070Z,3.38
2022-09-07T02:58:20.270Z,4.07
2022-09-07T03:00:58.173Z,3.35
2022-09-07T03:03:40.260Z,5.25
2022-09-07T03:06:15.365Z,2.58
2022-09-07T03:08:49.562Z,2.55
2022-09-07T03:16:16.780Z,2.10
2022-09-07T03:18:46.150Z,1.98
2022-09-07T03:21:15.561Z,1.98
2022-09-07T03:23:46.850Z,2.13
2022-09-07T03:26:25.416Z,4.18
2022-09-07T03:28:54.762Z,2.70
2022-09-07T03:31:25.312Z,2.63
2022-09-07T03:33:55.638Z,4.38
2022-09-07T03:36:24.982Z,3.47
2022-09-07T03:38:54.281Z,2.92
2022-09-07T03:41:23.175Z,3.00
2022-09-07T03:43:52.417Z,2.65
2022-09-07T03:46:21.612Z,3.03
2022-09-07T03:48:53.054Z,7.78
2022-09-07T03:51:22.139Z,2.88
2022-09-07T03:53:51.348Z,2.58
2022-09-07T03:56:22.090Z,3.38
2022-09-07T03:58:51.886Z,4.25
2022-09-07T04:01:22.769Z,5.03
2022-09-07T04:03:54.908Z,2.72
2022-09-07T04:06:25.084Z,3.72
2022-09-07T04:08:54.240Z,6.13
2022-09-07T04:11:23.392Z,2.63
2022-09-07T04:13:52.294Z,2.17
2022-09-07T04:16:24.192Z,2.72
2022-09-07T04:18:55.740Z,3.00
2022-09-07T04:21:26.430Z,2.22
2022-09-07T04:23:55.874Z,4.80
2022-09-07T04:26:27.065Z,2.90
2022-09-07T04:28:57.420Z,4.28
2022-09-07T04:31:26.734Z,2.83
2022-09-07T04:33:57.311Z,3.15
2022-09-07T04:36:26.316Z,4.10
2022-09-07T04:38:57.793Z,2.38
2022-09-07T04:41:27.239Z,4.47
2022-09-07T04:43:58.018Z,2.90
2022-09-07T04:46:28.699Z,2.95
2022-09-07T04:49:02.175Z,3.25
2022-09-07T04:51:33.937Z,4.78
2022-09-07T04:54:04.819Z,6.93
2022-09-07T04:56:34.881Z,3.70
2022-09-07T04:59:05.056Z,9.20
2022-09-07T05:01:34.154Z,4.40
2022-09-07T05:04:05.408Z,5.90
2022-09-07T05:06:35.546Z,3.88
2022-09-07T05:09:04.717Z,9.45
2022-09-07T05:11:33.968Z,5.57
2022-09-07T05:14:04.828Z,5.30
2022-09-07T05:16:34.134Z,6.57
2022-09-07T05:19:06.679Z,5.50
2022-09-07T05:21:36.634Z,5.97
2022-09-07T05:24:06.932Z,5.88
2022-09-07T05:26:39.834Z,4.85
2022-09-07T05:31:58.830Z,8.07
2022-09-07T05:34:29.378Z,5.78
2022-09-07T05:36:59.682Z,8.75
2022-09-07T05:39:29.071Z,5.05
2022-09-07T05:41:58.343Z,7.40
2022-09-07T05:47:11.782Z,6.85
2022-09-07T05:49:42.636Z,8.15
2022-09-07T05:52:11.934Z,7.82
2022-09-07T05:54:41.267Z,7.40
2022-09-07T05:57:12.785Z,9.98
2022-09-07T05:59:41.750Z,9.95
2022-09-07T06:02:14.232Z,8.52
2022-09-07T06:04:44.852Z,7.78
2022-09-07T06:07:23.249Z,8.20
2022-09-07T06:12:48.921Z,5.15
2022-09-07T06:15:18.922Z,8.15
2022-09-07T06:17:48.068Z,8.00
2022-09-07T06:20:18.634Z,8.23
2022-09-07T06:22:47.589Z,7.68
2022-09-07T06:25:17.223Z,5.20
2022-09-07T06:27:50.042Z,10.55
2022-09-07T06:30:19.181Z,5.93
2022-09-07T06:32:48.133Z,16.77
2022-09-07T06:35:19.019Z,8.32
2022-09-07T06:37:48.100Z,10.68
2022-09-07T06:40:17.402Z,15.52
2022-09-07T06:42:46.510Z,10.32
2022-09-07T06:45:18.078Z,6.60
2022-09-07T06:47:46.956Z,5.63
2022-09-07T06:50:17.718Z,4.40
2022-09-07T06:55:35.703Z,3.88
2022-09-07T06:58:04.716Z,3.88
2022-09-07T07:00:33.710Z,4.82
2022-09-07T07:03:02.564Z,3.88
2022-09-07T07:05:33.114Z,5.57
2022-09-07T07:08:01.993Z,2.40
2022-09-07T07:10:31.133Z,3.75
2022-09-07T07:13:00.464Z,2.38
2022-09-07T07:15:29.906Z,4.50
2022-09-07T07:18:13.458Z,3.53
2022-09-07T07:20:49.699Z,6.43
2022-09-07T07:23:18.683Z,3.30
2022-09-07T07:25:47.827Z,4.72
2022-09-07T07:31:10.589Z,2.58
2022-09-07T07:33:43.084Z,4.63
2022-09-07T07:36:15.438Z,6.38
2022-09-07T07:39:02.396Z,4.05
2022-09-07T07:44:22.503Z,4.88
2022-09-07T07:46:52.150Z,6.45
2022-09-07T07:49:21.667Z,4.57
2022-09-07T07:54:43.516Z,6.15
2022-09-07T07:57:12.903Z,4.38
2022-09-07T07:59:42.047Z,6.80
2022-09-07T08:02:16.991Z,5.97
2022-09-07T08:04:46.376Z,4.30
2022-09-07T08:07:17.240Z,4.05
2022-09-07T08:09:48.417Z,3.92
2022-09-07T08:12:19.286Z,6.90
2022-09-07T08:14:49.538Z,4.10
2022-09-07T08:17:19.300Z,11.50
2022-09-07T08:19:48.224Z,6.30
2022-09-07T08:22:18.812Z,2.72
2022-09-07T08:24:47.912Z,5.00
2022-09-07T08:27:20.710Z,3.85
2022-09-07T08:29:49.882Z,2.85
2022-09-07T08:32:18.792Z,3.72
2022-09-07T08:34:47.825Z,5.20
2022-09-07T08:37:18.403Z,2.42
2022-09-07T08:39:47.307Z,4.00
2022-09-07T08:42:37.044Z,6.32
2022-09-07T08:45:12.658Z,4.28
2022-09-07T08:47:46.668Z,3.75
2022-09-07T08:50:23.545Z,2.60
2022-09-07T08:52:57.564Z,3.00
2022-09-07T08:55:31.344Z,1.77
2022-09-07T08:58:06.349Z,2.45
2022-09-07T09:00:36.197Z,5.55
2022-09-07T09:06:10.689Z,3.85
2022-09-07T09:09:07.367Z,4.95
2022-09-07T09:11:47.920Z,5.03
2022-09-07T09:14:23.876Z,6.28
2022-09-07T09:16:58.298Z,4.43
2022-09-07T09:19:50.553Z,4.05
2022-09-07T09:22:21.689Z,3.42
2022-09-07T09:24:58.958Z,5.95
2022-09-07T09:27:28.045Z,3.05
2022-09-07T09:29:56.887Z,2.63
2022-09-07T09:32:37.203Z,2.70
2022-09-07T09:35:15.243Z,6.38
2022-09-07T09:37:45.045Z,2.47
2022-09-07T09:40:25.847Z,2.58
2022-09-07T09:43:06.496Z,1.50
2022-09-07T09:48:33.854Z,2.45
2022-09-07T09:54:00.805Z,5.93
2022-09-07T09:56:42.210Z,3.20
2022-09-07T10:05:30.052Z,2.90
2022-09-07T10:07:59.759Z,2.00
2022-09-07T10:10:31.508Z,2.50
2022-09-07T10:13:02.091Z,2.47
2022-09-07T10:15:39.996Z,1.23
2022-09-07T10:18:18.920Z,4.53
2022-09-07T10:20:48.099Z,1.30
2022-09-07T10:23:23.784Z,1.20
2022-09-07T10:25:52.987Z,2.42
2022-09-07T10:28:25.291Z,1.85
2022-09-07T10:31:15.084Z,2.83
2022-09-07T10:36:52.008Z,2.20
2022-09-07T10:39:27.221Z,3.50
2022-09-07T10:42:05.120Z,0.90
2022-09-07T10:44:45.982Z,2.83
2022-09-07T10:47:25.139Z,0.85
2022-09-07T10:52:58.235Z,1.48
2022-09-07T10:55:33.764Z,1.27
2022-09-07T10:58:18.983Z,2.40
2022-09-07T11:00:59.827Z,1.63
2022-09-07T11:03:48.031Z,1.40
2022-09-07T11:06:22.167Z,1.27
2022-09-07T11:09:28.929Z,1.00
2022-09-07T11:12:04.090Z,2.05
2022-09-07T11:14:39.391Z,1.63
2022-09-07T11:17:16.512Z,1.05
2022-09-07T11:19:53.544Z,2.53
2022-09-07T11:22:35.099Z,3.85
2022-09-07T11:25:31.634Z,2.40
2022-09-07T11:28:03.908Z,2.78
2022-09-07T11:30:36.224Z,2.35
2022-09-07T11:33:14.281Z,1.77
2022-09-07T11:35:50.268Z,1.90
2022-09-07T11:38:26.690Z,2.17
2022-09-07T11:41:19.726Z,0.90
2022-09-07T11:43:54.468Z,0.80
2022-09-07T11:46:31.785Z,2.28
2022-09-07T11:49:04.580Z,2.00
2022-09-07T11:51:41.621Z,0.98
2022-09-07T11:54:40.570Z,2.78
2022-09-07T11:57:38.218Z,3.05
2022-09-07T12:00:13.109Z,1.95
2022-09-07T12:03:22.904Z,3.53
2022-09-07T12:06:43.674Z,1.35
2022-09-07T12:09:32.939Z,4.20
2022-09-07T12:12:26.254Z,3.15
2022-09-07T12:15:04.710Z,1.30
2022-09-07T12:17:49.594Z,1.98
2022-09-07T12:20:21.814Z,1.38
2022-09-07T12:23:04.570Z,1.30
2022-09-07T12:25:36.153Z,2.00
2022-09-07T12:28:05.389Z,4.43
2022-09-07T12:31:02.320Z,1.50
2022-09-07T12:33:37.247Z,2.00
2022-09-07T12:36:39.569Z,3.13
2022-09-07T12:39:25.121Z,3.05
2022-09-07T12:45:49.614Z,1.52
2022-09-07T12:48:33.957Z,3.55
2022-09-07T12:51:11.102Z,3.55
2022-09-07T12:53:53.134Z,0.98
2022-09-07T12:56:42.163Z,5.03
2022-09-07T12:59:38.542Z,2.60
2022-09-07T13:02:31.862Z,2.15
2022-09-07T13:08:08.742Z,2.88
2022-09-07T13:10:40.715Z,5.80
2022-09-07T13:14:02.691Z,2.53
2022-09-07T13:16:32.254Z,4.35
2022-09-07T13:19:03.267Z,2.47
2022-09-07T13:21:38.643Z,1.05
2022-09-07T13:24:47.117Z,0.95
2022-09-07T13:27:44.352Z,1.45
2022-09-07T13:30:38.923Z,1.15
2022-09-07T13:33:52.586Z,2.50
2022-09-07T13:36:40.498Z,2.55
2022-09-07T13:39:15.071Z,2.47
2022-09-07T13:41:49.285Z,3.83
2022-09-07T13:44:26.950Z,2.97
2022-09-07T13:47:09.782Z,1.95
2022-09-07T13:49:55.775Z,3.13
2022-09-07T13:52:38.211Z,0.65
2022-09-07T13:55:34.902Z,2.75
2022-09-07T13:58:17.853Z,3.95
2022-09-07T14:00:54.600Z,1.17
2022-09-07T14:03:28.279Z,1.83
2022-09-07T14:06:30.043Z,2.75
2022-09-07T14:09:01.613Z,1.20
2022-09-07T14:11:39.861Z,6.10
2022-09-07T14:14:19.236Z,3.17
2022-09-07T14:16:50.912Z,2.65
2022-09-07T14:19:24.702Z,5.43
2022-09-07T14:21:58.804Z,5.57
2022-09-07T14:24:39.107Z,2.40
2022-09-07T14:27:19.787Z,3.95
2022-09-07T14:29:48.989Z,1.45
2022-09-07T14:32:21.461Z,3.03
2022-09-07T14:34:52.652Z,2.20
2022-09-07T14:37:23.391Z,1.45
2022-09-07T14:39:53.492Z,0.73
2022-09-07T14:42:24.657Z,1.20
2022-09-07T14:45:18.317Z,1.27
2022-09-07T14:47:49.537Z,0.93
2022-09-07T14:50:22.259Z,3.28
2022-09-07T14:55:46.326Z,0.50
2022-09-07T14:58:26.160Z,1.13
2022-09-07T15:04:00.583Z,2.08
2022-09-07T15:09:30.889Z,4.03
2022-09-07T15:12:19.151Z,1.48
2022-09-07T15:14:49.373Z,1.70
2022-09-07T15:22:59.676Z,1.52
2022-09-07T15:25:30.611Z,0.90
2022-09-07T15:28:00.121Z,6.65
2022-09-07T15:30:29.180Z,5.25
2022-09-07T15:32:58.592Z,2.33
2022-09-07T15:35:27.959Z,1.88
2022-09-07T15:38:02.818Z,0.75
2022-09-07T15:40:56.373Z,3.42
2022-09-07T15:43:30.824Z,1.75
2022-09-07T15:46:00.251Z,2.28
2022-09-07T15:48:29.290Z,6.07
2022-09-07T15:51:04.778Z,4.97
2022-09-07T15:56:29.099Z,2.95
2022-09-07T15:58:58.939Z,4.80
2022-09-07T16:04:17.713Z,1.05
2022-09-07T16:06:48.160Z,1.67
2022-09-07T16:09:21.777Z,2.83
2022-09-07T16:11:51.703Z,8.10
2022-09-07T16:14:20.975Z,1.77
2022-09-07T16:19:41.363Z,4.15
2022-09-07T16:23:13.224Z,4.30
2022-09-07T16:25:01.212Z,28.10
2022-09-07T16:27:32.340Z,16.35
2022-09-07T16:30:08.203Z,6.93
2022-09-07T16:32:46.698Z,9.05
2022-09-07T16:35:16.558Z,7.70
2022-09-07T16:40:41.986Z,7.75
2022-09-07T16:43:11.062Z,4.63
2022-09-07T16:48:30.443Z,33.60
2022-09-07T16:51:02.281Z,15.10
2022-09-07T16:53:34.770Z,15.88
2022-09-07T16:56:07.514Z,16.13
2022-09-07T16:58:39.035Z,11.23
2022-09-07T17:01:09.919Z,3.92
2022-09-07T17:03:39.300Z,4.55
2022-09-07T17:06:10.305Z,7.60
2022-09-07T17:08:42.256Z,5.00
2022-09-07T17:11:14.818Z,9.80
2022-09-07T17:13:44.580Z,3.85
2022-09-07T17:16:15.705Z,11.05
2022-09-07T17:21:36.671Z,13.38
2022-09-07T17:24:08.050Z,28.40
2022-09-07T17:26:42.328Z,22.60
2022-09-07T17:29:13.142Z,19.07
2022-09-07T17:34:32.574Z,14.10
2022-09-07T17:37:01.636Z,12.45
2022-09-07T17:39:31.269Z,7.93
2022-09-07T17:42:01.750Z,11.75
2022-09-07T17:44:35.992Z,6.88
2022-09-07T17:47:07.671Z,9.63
2022-09-07T17:49:36.886Z,5.57
2022-09-07T17:52:06.405Z,7.10
2022-09-07T17:54:35.782Z,5.53
2022-09-07T17:57:06.408Z,8.25
2022-09-07T18:02:25.665Z,4.93
2022-09-07T18:04:54.826Z,3.15
2022-09-07T18:07:23.823Z,2.47
2022-09-07T18:09:52.736Z,3.08
2022-09-07T18:12:23.556Z,4.53
2022-09-07T18:14:52.560Z,3.10
2022-09-07T18:17:21.523Z,3.95
2022-09-07T18:19:50.625Z,3.40
2022-09-07T18:22:19.703Z,5.68
2022-09-07T18:24:48.668Z,5.32
2022-09-07T18:27:17.925Z,6.90
2022-09-07T18:29:48.292Z,6.80
2022-09-07T18:32:17.760Z,7.00
2022-09-07T18:34:50.381Z,8.02
2022-09-07T18:37:19.952Z,22.00
2022-09-07T18:39:49.752Z,15.43
2022-09-07T18:42:18.674Z,19.98
2022-09-07T18:47:40.844Z,18.77
2022-09-07T18:50:10.538Z,11.45
2022-09-07T18:53:04.006Z,8.70
2022-09-07T18:55:29.825Z,13.63
2022-09-07T18:58:01.291Z,12.75
2022-09-07T19:00:31.908Z,8.55
2022-09-07T19:03:01.679Z,12.50
2022-09-07T19:08:19.874Z,6.82
2022-09-07T19:10:49.039Z,6.05
2022-09-07T19:13:18.324Z,6.05
2022-09-07T19:15:48.935Z,7.00
2022-09-07T19:18:17.752Z,3.30
2022-09-07T19:20:46.611Z,8.85
2022-09-07T19:23:15.674Z,6.03
2022-09-07T19:25:44.520Z,5.15
2022-09-07T19:28:14.373Z,8.82
2022-09-07T19:30:43.670Z,6.10
2022-09-07T19:33:13.853Z,5.65
2022-09-07T19:35:42.903Z,6.80
2022-09-07T19:38:12.823Z,7.20
2022-09-07T19:40:41.627Z,6.20
2022-09-07T19:43:10.806Z,7.25
2022-09-07T19:45:41.420Z,5.82
2022-09-07T19:48:10.675Z,6.43
2022-09-07T19:50:41.661Z,7.65
2022-09-07T19:53:10.775Z,10.00
2022-09-07T19:55:42.732Z,9.43
2022-09-07T19:58:12.729Z,8.73
2022-09-07T20:00:42.366Z,15.27
2022-09-07T20:03:14.374Z,16.05
2022-09-07T20:05:44.541Z,11.85
2022-09-07T20:08:13.411Z,14.68
2022-09-07T20:10:42.628Z,17.27
2022-09-07T20:13:11.435Z,14.20
2022-09-07T20:15:42.265Z,10.90
2022-09-07T20:18:11.711Z,7.95
2022-09-07T20:20:40.587Z,11.88
2022-09-07T20:23:10.906Z,13.65
2022-09-07T20:25:39.966Z,14.48
2022-09-07T20:28:10.694Z,11.07
2022-09-07T20:30:43.924Z,8.73
2022-09-07T20:33:13.114Z,10.90
2022-09-07T20:35:43.652Z,10.48
2022-09-07T20:38:14.067Z,11.75
2022-09-07T20:40:52.807Z,12.82
2022-09-07T20:43:23.023Z,20.02
2022-09-07T20:45:56.934Z,19.23
2022-09-07T20:48:27.943Z,17.88
2022-09-07T20:50:58.256Z,10.95
2022-09-07T20:53:29.252Z,13.30
2022-09-07T20:56:02.992Z,19.13
2022-09-07T20:58:33.404Z,17.77
2022-09-07T21:01:03.514Z,11.45
2022-09-07T21:03:32.853Z,13.38
2022-09-07T21:06:03.931Z,9.70
2022-09-07T21:08:36.961Z,10.60
2022-09-07T21:11:11.230Z,12.43
2022-09-07T21:13:40.890Z,11.30
2022-09-07T21:16:12.791Z,20.05
2022-09-07T21:18:43.090Z,8.23
2022-09-07T21:21:20.825Z,10.00
2022-09-07T21:23:55.708Z,9.57
2022-09-07T21:26:25.265Z,10.15
2022-09-07T21:28:58.338Z,10.82
2022-09-07T21:31:27.651Z,10.80
2022-09-07T21:33:58.056Z,6.03
2022-09-07T21:36:27.661Z,5.78
2022-09-07T21:38:57.980Z,7.32
2022-09-07T21:41:27.359Z,10.13
2022-09-07T21:43:57.184Z,9.27
2022-09-07T21:46:27.686Z,5.75
2022-09-07T21:48:58.075Z,7.47
2022-09-07T21:51:28.124Z,10.25
2022-09-07T21:54:00.003Z,8.02
2022-09-07T21:56:31.167Z,6.40
2022-09-07T21:59:02.282Z,9.13
2022-09-07T22:01:32.286Z,8.30
2022-09-07T22:04:03.083Z,4.35
2022-09-07T22:06:33.306Z,6.00
2022-09-07T22:09:06.146Z,6.78
2022-09-07T22:11:35.282Z,6.82
2022-09-07T22:14:05.607Z,7.05
2022-09-07T22:16:35.882Z,4.13
2022-09-07T22:19:05.171Z,8.20
2022-09-07T22:21:34.626Z,7.82
2022-09-07T22:24:07.108Z,7.13
2022-09-07T22:26:38.620Z,6.82
2022-09-07T22:29:08.670Z,4.75
2022-09-07T22:31:39.879Z,7.97
2022-09-07T22:34:10.154Z,5.30
2022-09-07T22:36:41.450Z,6.90
2022-09-07T22:39:14.676Z,7.00
2022-09-07T22:41:44.864Z,7.20
2022-09-07T22:44:15.417Z,7.78
2022-09-07T22:46:46.620Z,11.13
2022-09-07T22:49:17.271Z,8.75
2022-09-07T22:51:46.626Z,6.07
2022-09-07T22:54:16.955Z,9.23
2022-09-07T22:56:45.987Z,9.15
2022-09-07T22:59:15.185Z,9.48
2022-09-07T23:01:44.179Z,5.80
2022-09-07T23:04:13.965Z,9.75
2022-09-07T23:06:44.665Z,10.25
2022-09-07T23:09:17.762Z,12.00
2022-09-07T23:11:47.935Z,7.55
2022-09-07T23:14:19.391Z,10.75
2022-09-07T23:16:48.524Z,9.43
2022-09-07T23:19:19.752Z,6.85
2022-09-07T23:21:48.826Z,8.32
2022-09-07T23:24:20.300Z,7.22
2022-09-07T23:26:49.479Z,7.68
2022-09-07T23:29:20.841Z,7.78
2022-09-07T23:31:50.051Z,7.15
2022-09-07T23:34:19.108Z,8.95
2022-09-07T23:36:47.900Z,6.05
2022-09-07T23:39:18.288Z,9.18
2022-09-07T23:41:47.273Z,9.68
2022-09-07T23:44:16.253Z,6.90
2022-09-07T23:46:45.277Z,8.43
2022-09-07T23:49:14.286Z,8.30
2022-09-07T23:51:43.152Z,6.97
2022-09-07T23:54:12.436Z,6.40
2022-09-07T23:56:42.733Z,10.68
2022-09-07T23:59:11.754Z,7.03
